CheckWX is a tool to help pilots better visualize weather data.  It is not intended as a substitute for an official pre-flight weather briefing.

23:09:38 UTC

UIII TAF
Irkutsk Airport Airport
Irkutsk, Russian Federation
TAF UIII 092300Z 1000/1024 VRB01MPS 2900 BR BKN003 TEMPO 1000/1002 0500 FG VV001 BECMG 1002/1003 9999 NSW NSC BECMG 1006/1008 SCT040CB

Jul-10@
00:00 UTC

Jul-10 @ 00:00 UTC

Jul-10@
02:00 UTC

Jul-10 @ 02:00 UTC

TAF UIII 092300Z 1000/1024 VRB01MPS 2900 BR BKN003

Expired

Wind
  • Variable at 2 KTS
Conditions
Mist
Cloud Levels
  • Broken at 300' AGL

Jul-10@
00:00 UTC

Jul-10 @ 00:00 UTC

Jul-10@
02:00 UTC

Jul-10 @ 02:00 UTC

TEMPO 1000/1002 0500 FG VV001

Expired

Conditions
Fog
Cloud Levels
  • Vertical visibility

Jul-10@
02:00 UTC

Jul-10 @ 02:00 UTC

Jul-10@
06:00 UTC

Jul-10 @ 06:00 UTC

BECMG 1002/1003 9999 NSW NSC

Expired

Wind
  • Variable at 2 KTS
Conditions
No significant weather
Cloud Levels
  • No significant clouds

Jul-10@
06:00 UTC

Jul-10 @ 06:00 UTC

Jul-11@
00:00 UTC

Jul-11 @ 00:00 UTC

BECMG 1006/1008 SCT040CB

Becoming

Becoming Conditions expected by Fri, Jul 10, 2020 @ 08:00 UTC

Wind
  • Variable at 2 KTS
Conditions
No significant weather
Cloud Levels
  • Scattered at 4,000' AGL